createdAt,value
2023-02-09T00:00:02.236Z,98050.00
2023-02-09T00:02:29.235Z,98043.34
2023-02-09T00:04:55.772Z,98045.13
2023-02-09T00:07:22.215Z,98042.50
2023-02-09T00:09:50.283Z,98034.03
2023-02-09T00:12:35.100Z,98040.97
2023-02-09T00:15:01.603Z,98039.13
2023-02-09T00:17:28.270Z,98040.84
2023-02-09T00:19:55.006Z,98038.53
2023-02-09T00:22:21.610Z,98041.25
2023-02-09T00:24:48.044Z,98051.38
2023-02-09T00:27:14.519Z,98051.50
2023-02-09T00:29:40.958Z,98052.31
2023-02-09T00:32:07.483Z,98046.34
2023-02-09T00:34:33.982Z,98045.41
2023-02-09T00:37:00.396Z,98044.47
2023-02-09T00:39:26.826Z,98043.66
2023-02-09T00:42:08.547Z,98048.16
2023-02-09T00:44:36.587Z,98037.09
2023-02-09T00:47:03.846Z,98040.53
2023-02-09T00:49:30.621Z,98043.06
2023-02-09T00:51:57.211Z,98030.38
2023-02-09T00:54:23.928Z,98036.47
2023-02-09T00:56:50.580Z,98022.13
2023-02-09T00:59:17.382Z,98032.34
2023-02-09T01:01:43.850Z,98029.09
2023-02-09T01:04:10.354Z,98029.03
2023-02-09T01:06:36.798Z,98022.31
2023-02-09T01:09:03.481Z,98028.19
2023-02-09T01:11:30.400Z,98028.94
2023-02-09T01:13:57.969Z,98025.63
2023-02-09T01:16:24.782Z,98016.22
2023-02-09T01:18:51.390Z,98014.59
2023-02-09T01:21:19.348Z,98015.44
2023-02-09T01:23:46.757Z,98027.31
2023-02-09T01:26:13.813Z,98023.91
2023-02-09T01:28:40.478Z,98023.13
2023-02-09T01:31:17.140Z,98020.75
2023-02-09T01:33:43.697Z,98010.50
2023-02-09T01:36:10.189Z,98013.03
2023-02-09T01:38:36.646Z,98011.38
2023-02-09T01:41:03.080Z,98005.47
2023-02-09T01:43:29.526Z,98000.34
2023-02-09T01:45:56.049Z,97997.03
2023-02-09T01:48:30.315Z,98003.00
2023-02-09T01:50:58.540Z,97996.22
2023-02-09T01:53:25.477Z,97996.34
2023-02-09T01:55:58.094Z,97997.25
2023-02-09T01:58:24.929Z,97995.63
2023-02-09T02:00:51.432Z,97986.25
2023-02-09T02:03:19.917Z,97993.91
2023-02-09T02:05:50.352Z,97982.03
2023-02-09T02:08:21.307Z,97987.09
2023-02-09T02:10:47.911Z,97990.41
2023-02-09T02:13:14.792Z,97985.34
2023-02-09T02:15:48.972Z,97977.06
2023-02-09T02:18:33.631Z,97977.25
2023-02-09T02:21:15.117Z,97973.84
2023-02-09T02:23:59.957Z,97964.47
2023-02-09T02:26:43.919Z,97973.72
2023-02-09T02:29:29.228Z,97966.84
2023-02-09T02:32:14.567Z,97961.94
2023-02-09T02:34:40.978Z,97959.38
2023-02-09T02:37:13.507Z,97962.16
2023-02-09T02:39:45.935Z,97959.75
2023-02-09T02:42:32.566Z,97958.22
2023-02-09T02:45:09.179Z,97961.59
2023-02-09T02:47:36.649Z,97958.09
2023-02-09T02:50:10.406Z,97947.03
2023-02-09T02:52:38.289Z,97958.91
2023-02-09T02:55:08.174Z,97953.72
2023-02-09T02:57:36.710Z,97952.75
2023-02-09T03:00:13.711Z,97948.44
2023-02-09T03:02:42.389Z,97940.88
2023-02-09T03:05:09.827Z,97940.25
2023-02-09T03:07:36.305Z,97936.91
2023-02-09T03:10:22.667Z,97948.81
2023-02-09T03:12:52.128Z,97945.50
2023-02-09T03:15:25.620Z,97949.13
2023-02-09T03:17:52.386Z,97945.91
2023-02-09T03:20:26.992Z,97945.03
2023-02-09T03:22:58.156Z,97939.91
2023-02-09T03:25:30.218Z,97941.59
2023-02-09T03:28:03.004Z,97934.69
2023-02-09T03:30:31.580Z,97930.53
2023-02-09T03:32:58.090Z,97933.91
2023-02-09T03:35:27.129Z,97939.19
2023-02-09T03:37:53.577Z,97940.06
2023-02-09T03:40:20.117Z,97942.56
2023-02-09T03:42:46.597Z,97940.78
2023-02-09T03:45:13.119Z,97942.47
2023-02-09T03:47:39.552Z,97936.69
2023-02-09T03:50:07.410Z,97935.97
2023-02-09T03:52:34.037Z,97930.81
2023-02-09T03:55:00.430Z,97924.88
2023-02-09T03:57:26.878Z,97933.44
2023-02-09T03:59:53.295Z,97922.47
2023-02-09T04:02:19.730Z,97920.78
2023-02-09T04:04:46.245Z,97918.41
2023-02-09T04:07:13.987Z,97914.19
2023-02-09T04:09:40.447Z,97911.53
2023-02-09T04:12:07.027Z,97907.19
2023-02-09T04:14:33.427Z,97902.03
2023-02-09T04:16:59.932Z,97900.38
2023-02-09T04:19:26.418Z,97897.00
2023-02-09T04:21:52.852Z,97891.13
2023-02-09T04:24:19.373Z,97903.88
2023-02-09T04:26:45.824Z,97903.97
2023-02-09T04:29:12.267Z,97893.81
2023-02-09T04:31:38.874Z,97905.84
2023-02-09T04:34:05.342Z,97905.78
2023-02-09T04:36:31.854Z,97905.75
2023-02-09T04:38:58.371Z,97905.81
2023-02-09T04:41:24.790Z,97902.31
2023-02-09T04:43:51.270Z,97900.59
2023-02-09T04:46:18.233Z,97908.34
2023-02-09T04:48:44.993Z,97914.31
2023-02-09T04:51:11.740Z,97904.94
2023-02-09T04:53:38.412Z,97910.09
2023-02-09T04:56:05.242Z,97913.56
2023-02-09T04:58:50.367Z,97917.81
2023-02-09T05:01:21.637Z,97913.63
2023-02-09T05:03:48.162Z,97918.78
2023-02-09T05:06:15.223Z,97914.56
2023-02-09T05:08:41.646Z,97912.97
2023-02-09T05:11:08.136Z,97914.78
2023-02-09T05:13:34.614Z,97904.69
2023-02-09T05:16:04.622Z,97902.19
2023-02-09T05:18:31.047Z,97909.03
2023-02-09T05:20:57.510Z,97897.91
2023-02-09T05:23:23.951Z,97897.81
2023-02-09T05:25:50.490Z,97899.59
2023-02-09T05:28:16.995Z,97896.31
2023-02-09T05:30:43.764Z,97890.44
2023-02-09T05:33:10.534Z,97899.00
2023-02-09T05:35:37.009Z,97893.03
2023-02-09T05:38:03.466Z,97894.72
2023-02-09T05:40:29.908Z,97884.38
2023-02-09T05:42:57.463Z,97892.03
2023-02-09T05:45:23.893Z,97897.88
2023-02-09T05:47:50.326Z,97900.44
2023-02-09T05:50:16.894Z,97903.91
2023-02-09T05:52:43.335Z,97907.31
2023-02-09T05:55:09.752Z,97905.56
2023-02-09T05:57:36.239Z,97900.56
2023-02-09T06:00:04.212Z,97900.63
2023-02-09T06:02:30.693Z,97899.72
2023-02-09T06:04:57.148Z,97898.00
2023-02-09T06:07:23.563Z,97898.84
2023-02-09T06:09:50.022Z,97892.88
2023-02-09T06:12:16.427Z,97899.81
2023-02-09T06:14:42.886Z,97895.66
2023-02-09T06:17:09.300Z,97904.22
2023-02-09T06:19:35.764Z,97906.78
2023-02-09T06:22:02.235Z,97906.88
2023-02-09T06:24:28.651Z,97908.63
2023-02-09T06:26:56.370Z,97910.41
2023-02-09T06:29:22.867Z,97904.50
2023-02-09T06:31:49.430Z,97901.09
2023-02-09T06:34:15.933Z,97903.50
2023-02-09T06:36:42.341Z,97902.59
2023-02-09T06:39:09.971Z,97898.38
2023-02-09T06:41:36.981Z,97896.63
2023-02-09T06:44:03.587Z,97891.50
2023-02-09T06:46:30.050Z,97893.25
2023-02-09T06:48:57.583Z,97895.00
2023-02-09T06:51:25.899Z,97899.22
2023-02-09T06:53:52.409Z,97902.53
2023-02-09T06:56:20.164Z,97893.13
2023-02-09T06:58:46.651Z,97892.19
2023-02-09T07:01:15.836Z,97893.00
2023-02-09T07:03:43.123Z,97885.44
2023-02-09T07:06:13.880Z,97899.81
2023-02-09T07:08:41.034Z,97896.47
2023-02-09T07:11:11.845Z,97893.09
2023-02-09T07:13:38.713Z,97901.59
2023-02-09T07:16:05.981Z,97897.31
2023-02-09T07:18:32.794Z,97901.56
2023-02-09T07:21:00.797Z,97898.97
2023-02-09T07:23:27.351Z,97899.78
2023-02-09T07:25:53.840Z,97892.19
2023-02-09T07:28:20.727Z,97896.44
2023-02-09T07:30:52.197Z,97894.81
2023-02-09T07:33:19.245Z,97893.16
2023-02-09T07:35:45.898Z,97900.78
2023-02-09T07:38:12.336Z,97890.59
2023-02-09T07:40:39.150Z,97890.69
2023-02-09T07:43:06.361Z,97896.66
2023-02-09T07:45:33.273Z,97888.97
2023-02-09T07:47:59.834Z,97894.06
2023-02-09T07:50:26.278Z,97884.69
2023-02-09T07:52:53.472Z,97884.66
2023-02-09T07:55:19.948Z,97884.59
2023-02-09T07:57:46.483Z,97877.75
2023-02-09T08:00:13.211Z,97886.28
2023-02-09T08:02:39.768Z,97890.44
2023-02-09T08:05:11.691Z,97889.56
2023-02-09T08:07:38.255Z,97891.25
2023-02-09T08:10:04.829Z,97889.53
2023-02-09T08:12:50.173Z,97891.19
2023-02-09T08:15:18.189Z,97882.59
2023-02-09T08:17:44.858Z,97883.38
2023-02-09T08:20:14.371Z,97885.91
2023-02-09T08:22:43.557Z,97886.66
2023-02-09T08:25:10.039Z,97886.59
2023-02-09T08:27:37.457Z,97885.72
2023-02-09T08:30:04.181Z,97884.75
2023-02-09T08:32:30.667Z,97877.78
2023-02-09T08:34:57.111Z,97875.97
2023-02-09T08:37:23.566Z,97880.13
2023-02-09T08:39:50.016Z,97879.19
2023-02-09T08:42:16.460Z,97874.78
2023-02-09T08:44:42.906Z,97873.75
2023-02-09T08:47:09.626Z,97870.16
2023-02-09T08:49:36.184Z,97869.16
2023-02-09T08:52:02.644Z,97864.81
2023-02-09T08:54:29.109Z,97862.97
2023-02-09T08:56:55.528Z,97859.47
2023-02-09T08:59:22.151Z,97861.00
2023-02-09T09:01:48.573Z,97860.94
2023-02-09T09:04:15.006Z,97848.03
2023-02-09T09:06:41.619Z,97849.63
2023-02-09T09:09:08.040Z,97852.88
2023-02-09T09:11:34.510Z,97851.88
2023-02-09T09:14:00.914Z,97848.41
2023-02-09T09:16:27.446Z,97849.19
2023-02-09T09:18:53.928Z,97842.28
2023-02-09T09:21:20.400Z,97843.03
2023-02-09T09:23:47.403Z,97844.53
2023-02-09T09:26:14.612Z,97844.41
2023-02-09T09:28:41.389Z,97838.31
2023-02-09T09:31:12.087Z,97854.41
2023-02-09T09:33:38.928Z,97847.41
2023-02-09T09:36:06.296Z,97850.66
2023-02-09T09:38:36.244Z,97853.09
2023-02-09T09:41:03.280Z,97848.59
2023-02-09T09:43:34.673Z,97840.72
2023-02-09T09:46:01.814Z,97847.38
2023-02-09T09:48:40.533Z,97840.47
2023-02-09T09:51:33.249Z,97835.13
2023-02-09T09:54:01.921Z,97842.56
2023-02-09T09:56:29.688Z,97842.38
2023-02-09T09:58:56.887Z,97843.00
2023-02-09T10:01:24.599Z,97830.00
2023-02-09T10:03:51.117Z,97831.41
2023-02-09T10:06:21.699Z,97826.09
2023-02-09T10:08:54.486Z,97826.69
2023-02-09T10:11:25.545Z,97822.06
2023-02-09T10:13:55.901Z,97823.47
2023-02-09T10:16:26.737Z,97820.56
2023-02-09T10:19:03.988Z,97820.22
2023-02-09T10:21:31.645Z,97818.97
2023-02-09T10:24:00.807Z,97810.03
2023-02-09T10:26:28.461Z,97812.16
2023-02-09T10:28:56.588Z,97797.16
2023-02-09T10:31:26.087Z,97794.94
2023-02-09T10:34:02.467Z,97790.16
2023-02-09T10:36:31.489Z,97787.91
2023-02-09T10:39:13.240Z,97789.06
2023-02-09T10:41:42.030Z,97781.66
2023-02-09T10:44:14.416Z,97779.41
2023-02-09T10:46:41.012Z,97767.66
2023-02-09T10:49:26.368Z,97773.16
2023-02-09T10:51:56.570Z,97762.38
2023-02-09T10:54:24.894Z,97758.28
2023-02-09T10:56:51.321Z,97749.06
2023-02-09T10:59:22.476Z,97755.28
2023-02-09T11:01:56.632Z,97745.09
2023-02-09T11:04:29.806Z,97739.06
2023-02-09T11:07:00.980Z,97730.69
2023-02-09T11:09:28.920Z,97738.47
2023-02-09T11:11:55.473Z,97739.38
2023-02-09T11:14:22.521Z,97721.69
2023-02-09T11:17:03.595Z,97722.06
2023-02-09T11:19:44.231Z,97715.47
2023-02-09T11:22:17.882Z,97714.78
2023-02-09T11:24:44.278Z,97714.25
2023-02-09T11:27:27.785Z,97699.72
2023-02-09T11:29:57.199Z,97703.31
2023-02-09T11:32:32.808Z,97696.75
2023-02-09T11:35:16.618Z,97678.91
2023-02-09T11:37:49.414Z,97686.88
2023-02-09T11:40:15.927Z,97671.50
2023-02-09T11:42:46.256Z,97668.22
2023-02-09T11:45:30.777Z,97664.06
2023-02-09T11:48:00.761Z,97663.28
2023-02-09T11:50:46.163Z,97659.84
2023-02-09T11:53:21.741Z,97656.47
2023-02-09T11:56:08.446Z,97648.72
2023-02-09T11:58:47.522Z,97651.94
2023-02-09T12:01:16.342Z,97652.06
2023-02-09T12:03:47.982Z,97648.81
2023-02-09T12:06:17.178Z,97644.44
2023-02-09T12:08:50.625Z,97635.81
2023-02-09T12:11:55.429Z,97643.75
2023-02-09T12:14:40.659Z,97633.25
2023-02-09T12:17:11.635Z,97629.22
2023-02-09T12:19:41.847Z,97623.41
2023-02-09T12:22:26.914Z,97616.56
2023-02-09T12:25:11.883Z,97613.34
2023-02-09T12:27:42.925Z,97616.59
2023-02-09T12:30:35.796Z,97609.75
2023-02-09T12:33:18.715Z,97608.94
2023-02-09T12:36:05.298Z,97607.53
2023-02-09T12:38:53.537Z,97606.41
2023-02-09T12:41:21.048Z,97608.22
2023-02-09T12:43:47.941Z,97605.16
2023-02-09T12:46:22.684Z,97613.41
2023-02-09T12:49:01.289Z,97610.97
2023-02-09T12:51:46.622Z,97596.63
2023-02-09T12:54:31.685Z,97600.63
2023-02-09T12:57:33.600Z,97604.19
2023-02-09T12:59:59.997Z,97588.19
2023-02-09T13:02:30.234Z,97588.81
2023-02-09T13:05:04.977Z,97586.66
2023-02-09T13:07:50.364Z,97576.78
2023-02-09T13:10:16.796Z,97573.03
2023-02-09T13:12:46.108Z,97571.91
2023-02-09T13:15:13.818Z,97564.72
2023-02-09T13:17:40.449Z,97563.47
2023-02-09T13:20:34.008Z,97562.22
2023-02-09T13:23:13.182Z,97569.94
2023-02-09T13:25:40.047Z,97562.75
2023-02-09T13:28:17.078Z,97564.72
2023-02-09T13:30:43.817Z,97552.44
2023-02-09T13:33:10.259Z,97556.63
2023-02-09T13:35:42.414Z,97553.94
2023-02-09T13:38:15.466Z,97560.41
2023-02-09T13:40:46.203Z,97551.53
2023-02-09T13:43:12.628Z,97551.22
2023-02-09T13:45:49.548Z,97549.97
2023-02-09T13:48:31.365Z,97551.84
2023-02-09T13:50:59.292Z,97545.16
2023-02-09T13:53:27.259Z,97548.50
2023-02-09T13:55:54.580Z,97537.06
2023-02-09T13:58:32.931Z,97540.69
2023-02-09T14:01:12.753Z,97545.69
2023-02-09T14:03:57.388Z,97548.91
2023-02-09T14:06:30.384Z,97544.56
2023-02-09T14:08:58.118Z,97536.00
2023-02-09T14:11:41.553Z,97530.50
2023-02-09T14:14:12.904Z,97538.09
2023-02-09T14:16:52.671Z,97536.19
2023-02-09T14:19:25.263Z,97537.25
2023-02-09T14:21:52.791Z,97540.78
2023-02-09T14:24:19.388Z,97530.56
2023-02-09T14:26:48.934Z,97523.88
2023-02-09T14:29:21.339Z,97530.38
2023-02-09T14:31:53.038Z,97523.47
2023-02-09T14:34:24.347Z,97533.34
2023-02-09T14:36:52.561Z,97528.66
2023-02-09T14:39:22.113Z,97528.16
2023-02-09T14:41:59.651Z,97528.31
2023-02-09T14:44:26.835Z,97535.50
2023-02-09T14:46:57.568Z,97536.44
2023-02-09T14:49:24.476Z,97529.84
2023-02-09T14:51:57.246Z,97532.53
2023-02-09T14:54:27.619Z,97532.06
2023-02-09T14:56:54.833Z,97523.03
2023-02-09T14:59:21.941Z,97533.16
2023-02-09T15:01:50.500Z,97528.56
2023-02-09T15:04:17.068Z,97523.94
2023-02-09T15:06:44.551Z,97521.91
2023-02-09T15:09:20.132Z,97522.31
2023-02-09T15:12:04.471Z,97527.22
2023-02-09T15:14:32.450Z,97519.09
2023-02-09T15:16:59.409Z,97511.94
2023-02-09T15:19:25.876Z,97508.16
2023-02-09T15:22:05.494Z,97501.94
2023-02-09T15:24:33.224Z,97502.44
2023-02-09T15:26:59.656Z,97501.94
2023-02-09T15:29:26.105Z,97502.34
2023-02-09T15:31:52.927Z,97505.13
2023-02-09T15:34:19.368Z,97507.25
2023-02-09T15:36:45.926Z,97511.78
2023-02-09T15:39:19.840Z,97506.03
2023-02-09T15:42:05.130Z,97503.13
2023-02-09T15:44:49.858Z,97497.28
2023-02-09T15:47:34.728Z,97508.78
2023-02-09T15:50:01.164Z,97510.16
2023-02-09T15:52:29.457Z,97510.41
2023-02-09T15:54:55.954Z,97511.53
2023-02-09T15:57:25.148Z,97512.16
2023-02-09T15:59:51.783Z,97517.94
2023-02-09T16:02:19.468Z,97520.81
2023-02-09T16:04:46.088Z,97529.03
2023-02-09T16:07:14.298Z,97528.13
2023-02-09T16:09:42.443Z,97526.97
2023-02-09T16:12:11.455Z,97529.41
2023-02-09T16:14:38.272Z,97522.16
2023-02-09T16:17:05.690Z,97518.06
2023-02-09T16:19:32.187Z,97522.66
2023-02-09T16:22:02.244Z,97509.28
2023-02-09T16:24:28.677Z,97502.78
2023-02-09T16:26:55.205Z,97505.66
2023-02-09T16:29:21.643Z,97499.22
2023-02-09T16:31:48.405Z,97500.34
2023-02-09T16:34:15.690Z,97504.09
2023-02-09T16:36:42.590Z,97497.72
2023-02-09T16:39:16.486Z,97504.22
2023-02-09T16:41:52.770Z,97507.88
2023-02-09T16:44:19.315Z,97512.38
2023-02-09T16:46:47.221Z,97505.84
2023-02-09T16:49:26.685Z,97506.34
2023-02-09T16:51:55.510Z,97506.81
2023-02-09T16:54:21.997Z,97514.13
2023-02-09T16:56:53.969Z,97509.84
2023-02-09T16:59:20.872Z,97502.41
2023-02-09T17:01:48.735Z,97509.56
2023-02-09T17:04:15.403Z,97501.97
2023-02-09T17:06:41.951Z,97501.44
2023-02-09T17:09:14.059Z,97506.84
2023-02-09T17:11:40.541Z,97500.91
2023-02-09T17:14:07.305Z,97501.06
2023-02-09T17:16:35.719Z,97500.44
2023-02-09T17:19:03.687Z,97502.75
2023-02-09T17:21:31.539Z,97494.44
2023-02-09T17:23:58.044Z,97495.44
2023-02-09T17:26:24.706Z,97500.97
2023-02-09T17:28:51.625Z,97494.44
2023-02-09T17:31:23.239Z,97496.28
2023-02-09T17:33:51.033Z,97485.44
2023-02-09T17:36:26.369Z,97492.47
2023-02-09T17:38:53.712Z,97492.00
2023-02-09T17:41:21.704Z,97491.44
2023-02-09T17:43:49.400Z,97488.41
2023-02-09T17:46:18.838Z,97489.44
2023-02-09T17:48:46.342Z,97488.56
2023-02-09T17:51:19.832Z,97500.84
2023-02-09T17:53:46.628Z,97504.47
2023-02-09T17:56:16.331Z,97497.75
2023-02-09T17:58:46.093Z,97504.13
2023-02-09T18:01:29.334Z,97499.88
2023-02-09T18:03:57.038Z,97496.41
2023-02-09T18:06:27.159Z,97488.03
2023-02-09T18:08:53.618Z,97495.97
2023-02-09T18:11:20.032Z,97493.75
2023-02-09T18:13:46.479Z,97498.31
2023-02-09T18:16:13.622Z,97495.19
2023-02-09T18:18:40.188Z,97494.56
2023-02-09T18:21:06.640Z,97496.81
2023-02-09T18:23:33.051Z,97491.91
2023-02-09T18:25:59.521Z,97491.28
2023-02-09T18:28:26.023Z,97500.06
2023-02-09T18:30:52.515Z,97497.41
2023-02-09T18:33:18.983Z,97497.59
2023-02-09T18:35:45.847Z,97494.28
2023-02-09T18:38:14.392Z,97499.44
2023-02-09T18:40:40.944Z,97491.69
2023-02-09T18:43:07.645Z,97492.00
2023-02-09T18:45:34.348Z,97492.22
2023-02-09T18:48:01.176Z,97493.38
2023-02-09T18:50:29.675Z,97503.75
2023-02-09T18:52:57.120Z,97495.47
2023-02-09T18:55:24.816Z,97495.63
2023-02-09T18:57:54.049Z,97499.91
2023-02-09T19:00:20.757Z,97498.09
2023-02-09T19:02:47.974Z,97496.41
2023-02-09T19:05:15.856Z,97499.84
2023-02-09T19:07:43.829Z,97498.28
2023-02-09T19:10:11.786Z,97501.25
2023-02-09T19:12:39.565Z,97502.34
2023-02-09T19:15:06.176Z,97498.88
2023-02-09T19:17:33.607Z,97502.34
2023-02-09T19:20:03.771Z,97501.50
2023-02-09T19:22:31.905Z,97496.34
2023-02-09T19:24:58.387Z,97497.44
2023-02-09T19:27:26.847Z,97497.56
2023-02-09T19:29:55.101Z,97500.34
2023-02-09T19:32:22.225Z,97491.84
2023-02-09T19:34:49.931Z,97496.34
2023-02-09T19:37:17.580Z,97498.41
2023-02-09T19:39:52.657Z,97499.16
2023-02-09T19:42:22.547Z,97495.63
2023-02-09T19:44:49.377Z,97502.78
2023-02-09T19:47:15.919Z,97497.84
2023-02-09T19:49:42.988Z,97493.97
2023-02-09T19:52:09.435Z,97504.59
2023-02-09T19:54:35.957Z,97504.53
2023-02-09T19:57:05.599Z,97502.84
2023-02-09T19:59:32.193Z,97506.63
2023-02-09T20:01:58.754Z,97504.22
2023-02-09T20:04:25.478Z,97506.94
2023-02-09T20:06:51.930Z,97507.09
2023-02-09T20:09:18.393Z,97497.03
2023-02-09T20:11:44.814Z,97495.47
2023-02-09T20:14:12.504Z,97496.69
2023-02-09T20:16:39.108Z,97494.91
2023-02-09T20:19:05.720Z,97496.72
2023-02-09T20:21:32.170Z,97490.81
2023-02-09T20:23:58.603Z,97493.47
2023-02-09T20:26:28.984Z,97486.84
2023-02-09T20:28:56.509Z,97488.31
2023-02-09T20:31:25.523Z,97488.41
2023-02-09T20:33:52.049Z,97495.38
2023-02-09T20:36:18.739Z,97485.09
2023-02-09T20:38:45.170Z,97497.47
2023-02-09T20:41:13.426Z,97490.81
2023-02-09T20:43:58.737Z,97490.94
2023-02-09T20:46:45.255Z,97490.34
2023-02-09T20:49:13.069Z,97494.75
2023-02-09T20:51:39.589Z,97494.09
2023-02-09T20:54:06.100Z,97485.59
2023-02-09T20:56:32.529Z,97474.53
2023-02-09T20:58:59.196Z,97485.03
2023-02-09T21:01:26.859Z,97473.19
2023-02-09T21:03:54.657Z,97469.09
2023-02-09T21:06:21.548Z,97461.56
2023-02-09T21:08:48.408Z,97461.81
2023-02-09T21:11:16.033Z,97455.03
2023-02-09T21:13:42.681Z,97459.44
2023-02-09T21:16:10.079Z,97459.63
2023-02-09T21:18:37.704Z,97448.59
2023-02-09T21:21:08.034Z,97454.69
2023-02-09T21:23:34.493Z,97446.28
2023-02-09T21:26:08.453Z,97455.81
2023-02-09T21:28:35.573Z,97452.41
2023-02-09T21:31:02.197Z,97456.91
2023-02-09T21:33:28.640Z,97459.75
2023-02-09T21:35:55.070Z,97458.06
2023-02-09T21:38:21.623Z,97455.63
2023-02-09T21:40:48.333Z,97458.31
2023-02-09T21:43:14.988Z,97451.59
2023-02-09T21:45:41.629Z,97450.78
2023-02-09T21:48:08.300Z,97452.69
2023-02-09T21:50:34.812Z,97446.97
2023-02-09T21:53:02.102Z,97448.69
2023-02-09T21:55:30.762Z,97445.38
2023-02-09T21:57:57.841Z,97457.44
2023-02-09T22:00:24.783Z,97454.19
2023-02-09T22:02:54.877Z,97454.28
2023-02-09T22:05:22.028Z,97465.41
2023-02-09T22:07:49.874Z,97464.66
2023-02-09T22:10:20.160Z,97454.47
2023-02-09T22:12:46.762Z,97457.19
2023-02-09T22:15:13.276Z,97453.06
2023-02-09T22:17:39.937Z,97454.09
2023-02-09T22:20:06.577Z,97451.75
2023-02-09T22:22:33.051Z,97442.56
2023-02-09T22:24:59.488Z,97440.97
2023-02-09T22:27:26.250Z,97446.97
2023-02-09T22:29:52.679Z,97459.06
2023-02-09T22:32:20.465Z,97454.13
2023-02-09T22:34:47.058Z,97445.75
2023-02-09T22:37:13.693Z,97457.75
2023-02-09T22:39:40.158Z,97450.66
2023-02-09T22:42:06.640Z,97450.03
2023-02-09T22:44:33.495Z,97457.06
2023-02-09T22:46:59.971Z,97452.94
2023-02-09T22:49:26.446Z,97455.50
2023-02-09T22:51:52.928Z,97454.81
2023-02-09T22:54:20.202Z,97454.81
2023-02-09T22:56:46.869Z,97459.13
2023-02-09T22:59:13.757Z,97450.69
2023-02-09T23:01:40.522Z,97443.97
2023-02-09T23:04:07.118Z,97455.94
2023-02-09T23:06:33.657Z,97449.84
2023-02-09T23:09:01.662Z,97454.94
2023-02-09T23:11:28.647Z,97442.31
2023-02-09T23:14:08.416Z,97448.41
2023-02-09T23:16:35.999Z,97448.47
2023-02-09T23:19:05.334Z,97445.91
2023-02-09T23:21:34.093Z,97457.22
2023-02-09T23:24:01.073Z,97468.50
2023-02-09T23:26:27.848Z,97465.19
2023-02-09T23:28:58.825Z,97460.84
2023-02-09T23:31:25.546Z,97470.97
2023-02-09T23:33:52.040Z,97465.16
2023-02-09T23:36:23.178Z,97468.50
2023-02-09T23:39:00.504Z,97471.06
2023-02-09T23:41:27.531Z,97461.97
2023-02-09T23:43:54.733Z,97462.97
2023-02-09T23:46:22.648Z,97461.19
2023-02-09T23:48:49.287Z,97455.28
2023-02-09T23:51:18.373Z,97450.22
2023-02-09T23:53:45.560Z,97458.97
2023-02-09T23:56:15.736Z,97451.22
2023-02-09T23:58:43.127Z,97442.38
